Time;durP1;ratioP1;P1;durP2;ratioP2;P2;SDS_P1;SDS_P2;PMS_P1;PMS_P2;Temp;Humidity;BMP_temperature;BMP_pressure;BME280_temperature;BME280_humidity;BME280_pressure;Samples;Min_cycle;Max_cycle;Signal;HPM_P1;HPM_P2
2022/11/07 00:01:32;;;;;;;1.37;1.27;;;9.50;99.90;;;;;;5042662;28;20225;-69
2022/11/07 00:03:57;;;;;;;4.90;1.50;;;9.60;99.90;;;;;;5048685;28;20204;-68
2022/11/07 00:06:23;;;;;;;1.70;1.60;;;9.60;99.90;;;;;;5044909;28;20566;-68
2022/11/07 00:08:50;;;;;;;2.50;1.83;;;9.60;99.90;;;;;;5045104;28;20261;-69
2022/11/07 00:11:15;;;;;;;2.07;1.60;;;9.70;99.90;;;;;;5040044;28;20706;-68
2022/11/07 00:13:41;;;;;;;1.83;1.40;;;9.70;99.90;;;;;;5046336;28;20525;-68
2022/11/07 00:16:08;;;;;;;2.00;1.43;;;9.70;99.90;;;;;;5042468;28;20178;-69
2022/11/07 00:18:34;;;;;;;2.60;1.93;;;9.70;99.90;;;;;;5046275;28;20308;-69
2022/11/07 00:21:08;;;;;;;1.73;1.50;;;9.70;99.90;;;;;;5041487;28;20539;-69
2022/11/07 00:23:37;;;;;;;1.37;1.27;;;9.60;99.90;;;;;;5044988;28;20189;-69
2022/11/07 00:26:08;;;;;;;2.37;1.70;;;9.70;99.90;;;;;;5041643;28;20789;-69
2022/11/07 00:28:35;;;;;;;2.27;1.23;;;9.60;99.90;;;;;;5049807;28;20522;-68
2022/11/07 00:31:02;;;;;;;3.20;1.50;;;9.60;99.90;;;;;;5043287;28;20488;-68
2022/11/07 00:33:27;;;;;;;1.30;1.20;;;9.60;99.90;;;;;;5045571;28;20455;-69
2022/11/07 00:35:53;;;;;;;1.87;1.50;;;9.60;99.90;;;;;;5035525;28;20448;-69
2022/11/07 00:38:19;;;;;;;1.53;1.43;;;9.50;99.90;;;;;;5047525;28;20206;-68
2022/11/07 00:40:59;;;;;;;1.70;1.60;;;9.60;99.90;;;;;;5038457;28;20183;-68
2022/11/07 00:43:25;;;;;;;1.60;1.50;;;9.50;99.90;;;;;;5043286;28;20520;-68
2022/11/07 00:45:51;;;;;;;2.17;1.60;;;9.50;99.90;;;;;;5040582;28;21018;-69
2022/11/07 00:48:16;;;;;;;2.13;1.30;;;9.60;99.90;;;;;;5047482;28;20444;-69
2022/11/07 00:50:42;;;;;;;2.53;1.80;;;9.60;99.90;;;;;;5038218;28;20550;-69
2022/11/07 00:53:08;;;;;;;1.90;1.80;;;9.60;99.90;;;;;;5037872;28;20662;-69
2022/11/07 00:55:34;;;;;;;1.70;1.60;;;9.60;99.90;;;;;;5047331;28;20193;-69
2022/11/07 00:57:59;;;;;;;1.50;1.40;;;9.60;99.90;;;;;;5048657;28;20216;-69
2022/11/07 01:00:25;;;;;;;1.53;1.30;;;9.70;99.90;;;;;;5031713;28;20440;-69
2022/11/07 01:05:09;;;;;;;1.70;1.60;;;9.60;99.90;;;;;;5040280;28;20697;-68
2022/11/07 01:05:37;;;;;;;1.60;1.20;;;9.60;99.90;;;;;;5029072;28;20796;-69
2022/11/07 01:08:03;;;;;;;1.30;1.20;;;9.50;99.90;;;;;;5048919;28;20778;-69
2022/11/07 01:10:28;;;;;;;1.57;1.47;;;9.50;99.90;;;;;;5037309;28;20502;-69
2022/11/07 01:12:54;;;;;;;1.60;1.30;;;9.40;99.90;;;;;;5037494;28;20218;-69
2022/11/07 01:15:19;;;;;;;3.00;1.70;;;9.40;99.90;;;;;;5043222;28;20314;-69
2022/11/07 01:17:45;;;;;;;2.40;1.57;;;9.30;99.90;;;;;;5039787;28;20205;-69
2022/11/07 01:20:11;;;;;;;1.73;1.63;;;9.40;99.90;;;;;;5042129;28;20618;-69
2022/11/07 01:22:36;;;;;;;1.53;1.30;;;9.30;99.90;;;;;;5039492;28;20212;-69
2022/11/07 01:25:02;;;;;;;1.50;1.40;;;9.40;99.90;;;;;;5038566;28;20441;-69
2022/11/07 01:27:28;;;;;;;1.60;1.40;;;9.40;99.90;;;;;;5044599;28;20204;-69
2022/11/07 01:29:54;;;;;;;3.40;1.80;;;9.40;99.90;;;;;;5045134;28;20439;-69
2022/11/07 01:32:19;;;;;;;2.50;1.57;;;9.40;99.90;;;;;;5035787;28;20209;-69
2022/11/07 01:34:45;;;;;;;1.33;1.23;;;9.30;99.90;;;;;;5042225;28;20240;-69
2022/11/07 01:37:10;;;;;;;3.27;1.60;;;9.30;99.90;;;;;;5041546;28;20252;-69
2022/11/07 01:39:36;;;;;;;2.10;1.90;;;9.30;99.90;;;;;;5044181;28;20184;-69
2022/11/07 01:42:02;;;;;;;2.37;1.80;;;9.30;99.90;;;;;;5042535;28;20205;-69
2022/11/07 01:44:28;;;;;;;1.77;1.67;;;9.20;99.90;;;;;;5043005;28;20184;-69
2022/11/07 01:46:58;;;;;;;3.57;1.60;;;9.20;99.90;;;;;;5033115;28;20437;-69
2022/11/07 01:49:29;;;;;;;3.17;1.83;;;9.20;99.90;;;;;;5037230;28;20661;-69
2022/11/07 01:52:05;;;;;;;1.50;1.40;;;9.20;99.90;;;;;;5035303;28;20824;-69
2022/11/07 01:54:36;;;;;;;1.93;1.60;;;9.20;99.90;;;;;;5040959;28;20437;-69
2022/11/07 01:57:07;;;;;;;2.53;1.70;;;9.20;99.90;;;;;;5032189;28;20464;-69
2022/11/07 01:59:35;;;;;;;2.90;1.80;;;9.10;99.90;;;;;;5045139;28;20440;-68
2022/11/07 02:02:01;;;;;;;2.37;2.17;;;9.20;99.90;;;;;;5033204;28;20464;-69
2022/11/07 02:04:29;;;;;;;1.73;1.63;;;9.20;99.90;;;;;;5041026;28;20438;-69
2022/11/07 02:07:05;;;;;;;2.20;1.43;;;9.30;99.90;;;;;;5041188;28;20223;-69
2022/11/07 02:09:31;;;;;;;2.10;1.93;;;9.30;99.90;;;;;;5038217;28;20446;-69
2022/11/07 02:11:59;;;;;;;2.60;1.70;;;9.40;99.90;;;;;;5042940;28;20475;-69
2022/11/07 02:14:26;;;;;;;1.70;1.60;;;9.40;99.90;;;;;;5040357;28;20191;-69
2022/11/07 02:16:52;;;;;;;3.70;1.93;;;9.40;99.90;;;;;;5033432;28;20585;-69
2022/11/07 02:19:46;;;;;;;3.33;1.80;;;9.40;99.90;;;;;;5045040;28;20807;-69
2022/11/07 02:22:23;;;;;;;2.53;2.13;;;9.50;99.90;;;;;;5031594;28;20961;-69
2022/11/07 02:24:52;;;;;;;4.27;1.93;;;9.50;99.90;;;;;;5041037;28;20439;-69
2022/11/07 02:27:21;;;;;;;2.87;1.67;;;9.60;99.90;;;;;;5035984;28;20492;-69
2022/11/07 02:29:56;;;;;;;1.83;1.70;;;9.60;99.90;;;;;;5045926;28;20443;-69
2022/11/07 02:32:21;;;;;;;1.80;1.70;;;9.70;99.90;;;;;;5042064;28;20541;-69
2022/11/07 02:35:01;;;;;;;3.00;1.70;;;9.70;99.90;;;;;;5038261;28;20495;-69
2022/11/07 02:37:33;;;;;;;2.70;1.90;;;9.70;99.90;;;;;;5037657;28;20310;-69
2022/11/07 02:40:00;;;;;;;1.70;1.60;;;9.80;99.90;;;;;;5046765;28;20444;-69
2022/11/07 02:42:42;;;;;;;2.50;2.03;;;9.80;99.90;;;;;;5035378;28;20801;-69
2022/11/07 02:45:12;;;;;;;1.97;1.73;;;9.80;99.90;;;;;;5042785;28;20472;-69
2022/11/07 02:47:38;;;;;;;2.90;2.40;;;9.90;99.90;;;;;;5047254;28;20435;-69
2022/11/07 02:50:11;;;;;;;2.07;1.80;;;9.90;99.90;;;;;;5037461;28;20468;-69
2022/11/07 02:52:36;;;;;;;3.27;1.60;;;9.90;99.90;;;;;;5034044;28;20200;-69
2022/11/07 02:55:03;;;;;;;2.23;1.80;;;9.90;99.90;;;;;;5043272;28;20433;-69
2022/11/07 02:57:28;;;;;;;1.50;1.40;;;9.90;99.90;;;;;;5039702;28;20589;-69
2022/11/07 02:59:54;;;;;;;2.17;1.63;;;9.90;99.90;;;;;;5047862;28;20436;-69
2022/11/07 03:02:19;;;;;;;2.83;1.80;;;9.90;99.90;;;;;;5039395;28;20190;-69
2022/11/07 03:04:45;;;;;;;2.30;2.00;;;9.90;99.90;;;;;;5037759;28;20177;-69
2022/11/07 03:07:10;;;;;;;1.67;1.57;;;9.90;99.90;;;;;;5040097;28;20182;-68
2022/11/07 03:09:36;;;;;;;3.30;2.30;;;9.90;99.90;;;;;;5048111;28;20189;-68
2022/11/07 03:12:02;;;;;;;4.80;2.00;;;10.00;99.90;;;;;;5041986;28;20233;-69
2022/11/07 03:14:27;;;;;;;2.03;1.77;;;10.00;99.90;;;;;;5047645;28;20665;-69
2022/11/07 03:16:53;;;;;;;1.87;1.77;;;10.00;99.90;;;;;;5040537;28;20204;-69
2022/11/07 03:19:18;;;;;;;2.20;1.77;;;10.00;99.90;;;;;;5047143;28;20296;-68
2022/11/07 03:21:44;;;;;;;2.00;1.77;;;10.00;99.90;;;;;;5039694;28;20251;-68
2022/11/07 03:24:09;;;;;;;3.70;1.97;;;10.00;99.90;;;;;;5038103;28;20564;-69
2022/11/07 03:26:35;;;;;;;1.93;1.80;;;10.00;99.90;;;;;;5039907;28;20189;-69
2022/11/07 03:29:00;;;;;;;3.17;1.80;;;10.10;99.90;;;;;;5045713;28;20169;-69
2022/11/07 03:31:26;;;;;;;2.53;2.07;;;10.10;99.90;;;;;;5036467;28;20197;-69
2022/11/07 03:33:51;;;;;;;1.73;1.60;;;10.10;99.90;;;;;;5036624;28;20182;-69
2022/11/07 03:36:17;;;;;;;3.50;1.90;;;10.10;99.90;;;;;;5047283;28;20201;-69
2022/11/07 03:38:42;;;;;;;2.33;1.60;;;10.10;99.90;;;;;;5035382;28;20210;-69
2022/11/07 03:41:08;;;;;;;1.60;1.50;;;10.10;99.90;;;;;;5044059;28;20197;-69
2022/11/07 03:43:33;;;;;;;2.40;2.20;;;10.10;99.90;;;;;;5039311;28;20762;-69
2022/11/07 03:45:59;;;;;;;2.13;1.80;;;10.10;99.90;;;;;;5041388;28;20254;-68
2022/11/07 03:48:24;;;;;;;1.70;1.60;;;10.10;99.90;;;;;;5037917;28;20265;-69
2022/11/07 03:50:50;;;;;;;1.50;1.40;;;10.10;99.90;;;;;;5042843;28;20178;-69
2022/11/07 03:53:15;;;;;;;3.23;1.50;;;10.10;99.90;;;;;;5034942;28;20570;-69
2022/11/07 03:55:42;;;;;;;2.77;1.83;;;10.10;99.90;;;;;;5043163;28;20178;-68
2022/11/07 03:58:07;;;;;;;1.67;1.40;;;10.10;99.90;;;;;;5043287;28;20217;-69
2022/11/07 04:00:33;;;;;;;2.10;1.73;;;10.10;99.90;;;;;;5043588;28;20436;-69
2022/11/07 04:02:58;;;;;;;4.20;2.17;;;10.10;99.90;;;;;;5036965;28;20212;-69
2022/11/07 04:05:24;;;;;;;2.67;1.60;;;10.10;99.90;;;;;;5043865;28;20256;-69
2022/11/07 04:07:50;;;;;;;1.73;1.63;;;10.10;99.90;;;;;;5043348;28;20190;-68
2022/11/07 04:10:15;;;;;;;6.23;1.67;;;10.10;99.90;;;;;;5039501;28;20217;-69
2022/11/07 04:18:12;;;;;;;1.73;1.37;;;10.00;99.90;;;;;;5046176;28;20505;-70
2022/11/07 04:20:38;;;;;;;1.80;1.50;;;10.00;99.90;;;;;;5042405;28;20468;-69
2022/11/07 04:23:03;;;;;;;9.30;1.77;;;10.00;99.90;;;;;;5032540;28;20193;-69
2022/11/07 04:28:15;;;;;;;2.13;1.60;;;9.90;99.90;;;;;;5045621;28;20232;-69
2022/11/07 04:30:40;;;;;;;2.70;1.83;;;9.80;99.90;;;;;;5045464;28;20435;-69
2022/11/07 04:33:06;;;;;;;7.33;1.70;;;9.80;99.90;;;;;;5038607;28;21374;-69
2022/11/07 04:35:32;;;;;;;2.30;1.97;;;9.80;99.90;;;;;;5045928;28;20591;-69
2022/11/07 04:37:59;;;;;;;2.47;2.27;;;9.70;99.90;;;;;;5043727;28;20208;-69
2022/11/07 04:40:25;;;;;;;3.57;2.00;;;9.70;99.90;;;;;;5034482;28;20439;-69
2022/11/07 04:42:50;;;;;;;2.33;1.40;;;9.70;99.90;;;;;;5030969;28;20455;-69
2022/11/07 04:45:16;;;;;;;3.00;2.20;;;9.80;99.90;;;;;;5042812;28;20429;-69
2022/11/07 04:47:42;;;;;;;6.57;2.00;;;9.70;99.90;;;;;;5041998;28;20189;-69
2022/11/07 04:50:10;;;;;;;2.80;1.77;;;9.70;99.90;;;;;;5037245;28;20186;-69
2022/11/07 04:52:36;;;;;;;1.90;1.63;;;9.70;99.90;;;;;;5039634;28;20451;-69
2022/11/07 04:55:02;;;;;;;3.00;2.00;;;9.60;99.90;;;;;;5037116;28;20812;-69
2022/11/07 04:57:27;;;;;;;3.67;1.80;;;9.60;99.90;;;;;;5040617;28;20364;-68
2022/11/07 04:59:53;;;;;;;2.13;1.60;;;9.60;99.90;;;;;;5038868;28;20494;-69
2022/11/07 05:02:22;;;;;;;5.30;2.90;;;9.60;99.90;;;;;;5040469;28;20665;-68
2022/11/07 05:04:48;;;;;;;2.20;2.00;;;9.50;99.90;;;;;;5029173;28;20178;-69
2022/11/07 05:07:13;;;;;;;2.07;1.70;;;9.50;99.90;;;;;;5039769;28;20452;-69
2022/11/07 05:09:39;;;;;;;1.30;1.20;;;9.50;99.90;;;;;;5040913;28;20564;-69
2022/11/07 05:12:04;;;;;;;3.80;2.30;;;9.50;99.90;;;;;;5037774;28;20218;-69
2022/11/07 05:14:30;;;;;;;2.23;1.57;;;9.40;99.90;;;;;;5043026;28;20177;-69
2022/11/07 05:16:56;;;;;;;2.80;2.20;;;9.40;99.90;;;;;;5036710;28;20210;-68
2022/11/07 05:19:22;;;;;;;3.67;2.53;;;9.40;99.90;;;;;;5042691;28;20559;-68
2022/11/07 05:23:11;;;;;;;2.03;1.87;;;9.40;99.90;;;;;;5043255;28;20478;-69
2022/11/07 05:24:33;;;;;;;1.77;1.63;;;9.40;99.90;;;;;;5045038;28;20178;-68
2022/11/07 05:26:58;;;;;;;2.60;2.27;;;9.40;99.90;;;;;;5036141;28;20438;-67
2022/11/07 05:29:24;;;;;;;2.83;1.70;;;9.40;99.90;;;;;;5044098;28;20181;-69
2022/11/07 05:31:49;;;;;;;3.87;2.03;;;9.40;99.90;;;;;;5042233;28;20209;-66
2022/11/07 05:34:15;;;;;;;5.90;2.70;;;9.40;99.90;;;;;;5046279;28;20195;-67
2022/11/07 05:36:40;;;;;;;3.47;2.37;;;9.40;99.90;;;;;;5036641;28;20767;-69
2022/11/07 05:39:06;;;;;;;6.80;4.27;;;9.30;99.90;;;;;;5036187;28;20171;-68
2022/11/07 05:41:34;;;;;;;6.77;2.70;;;9.40;99.90;;;;;;5050143;28;20254;-68
2022/11/07 05:43:59;;;;;;;2.70;1.93;;;9.40;99.90;;;;;;5035300;28;20650;-66
2022/11/07 05:46:25;;;;;;;5.10;3.00;;;9.40;99.90;;;;;;5033950;28;20468;-69
2022/11/07 05:48:50;;;;;;;2.70;2.23;;;9.40;99.90;;;;;;5038144;28;20174;-69
2022/11/07 05:51:16;;;;;;;4.93;2.37;;;9.40;99.90;;;;;;5041189;28;20198;-69
2022/11/07 05:53:41;;;;;;;3.90;2.50;;;9.40;99.90;;;;;;5035857;28;20187;-69
2022/11/07 05:56:07;;;;;;;6.97;4.20;;;9.50;99.90;;;;;;5035825;28;20607;-69
2022/11/07 05:58:33;;;;;;;2.60;1.60;;;9.50;99.90;;;;;;5036570;28;20639;-69
2022/11/07 06:01:04;;;;;;;3.70;2.10;;;9.50;99.90;;;;;;5032211;28;20698;-69
2022/11/07 06:03:30;;;;;;;6.00;2.23;;;9.50;99.90;;;;;;5036854;28;20437;-68
2022/11/07 06:05:56;;;;;;;3.67;1.93;;;9.50;99.90;;;;;;5038465;28;20440;-69
2022/11/07 06:08:21;;;;;;;4.20;2.07;;;9.50;99.90;;;;;;5039884;28;20454;-70
2022/11/07 06:10:47;;;;;;;6.20;3.57;;;9.60;99.90;;;;;;5040947;28;20185;-69
2022/11/07 06:13:14;;;;;;;3.30;2.37;;;9.60;99.90;;;;;;5037442;28;20205;-68
2022/11/07 06:15:40;;;;;;;4.17;1.93;;;9.70;99.90;;;;;;5033568;28;20185;-67
2022/11/07 06:18:10;;;;;;;4.47;1.80;;;9.70;99.90;;;;;;5045703;28;20463;-68
2022/11/07 06:20:36;;;;;;;2.20;1.67;;;9.80;99.90;;;;;;5042769;28;20424;-68
2022/11/07 06:23:04;;;;;;;4.13;2.03;;;9.80;99.90;;;;;;5045947;28;20432;-68
2022/11/07 06:25:30;;;;;;;6.10;2.10;;;9.80;99.90;;;;;;5042927;28;21906;-68
2022/11/07 06:28:05;;;;;;;4.27;2.17;;;9.80;99.90;;;;;;5035246;28;20443;-68
2022/11/07 06:30:31;;;;;;;13.30;4.00;;;9.90;99.90;;;;;;5031080;28;20435;-70
2022/11/07 06:33:02;;;;;;;5.70;2.53;;;10.00;99.90;;;;;;5037572;28;20437;-69
2022/11/07 06:35:28;;;;;;;4.60;2.00;;;10.10;99.90;;;;;;5029747;28;20523;-70
2022/11/07 06:37:54;;;;;;;2.80;1.80;;;10.20;99.90;;;;;;5033712;28;20468;-70
2022/11/07 06:40:19;;;;;;;2.73;1.77;;;10.30;99.90;;;;;;5047433;28;20798;-70
2022/11/07 06:42:45;;;;;;;3.70;2.80;;;10.30;99.90;;;;;;5039433;28;20229;-69
2022/11/07 06:45:10;;;;;;;4.40;2.20;;;10.40;99.90;;;;;;5039867;28;20178;-69
2022/11/07 06:47:36;;;;;;;3.73;1.93;;;10.50;99.90;;;;;;5044515;28;20188;-69
2022/11/07 06:50:02;;;;;;;5.43;2.70;;;10.60;99.90;;;;;;5035139;28;20174;-68
2022/11/07 06:52:28;;;;;;;3.73;1.67;;;10.60;99.90;;;;;;5032075;28;20484;-68
2022/11/07 06:54:53;;;;;;;4.30;1.87;;;10.60;99.90;;;;;;5031950;28;20425;-69
2022/11/07 06:57:19;;;;;;;3.00;1.90;;;10.70;99.90;;;;;;5032049;28;20206;-69
2022/11/07 06:59:44;;;;;;;5.90;2.47;;;10.60;99.90;;;;;;5031788;28;20574;-68
2022/11/07 07:02:13;;;;;;;4.03;2.30;;;10.70;99.90;;;;;;5032141;28;20663;-69
2022/11/07 07:04:38;;;;;;;4.63;2.63;;;10.70;99.90;;;;;;5032095;28;20580;-68
2022/11/07 07:07:04;;;;;;;4.30;1.90;;;10.70;99.90;;;;;;5032046;28;20417;-69
2022/11/07 07:09:29;;;;;;;4.47;1.60;;;10.80;99.90;;;;;;5031465;28;20537;-68
2022/11/07 07:11:55;;;;;;;3.03;2.27;;;10.80;99.90;;;;;;5031775;28;20213;-69
2022/11/07 07:14:20;;;;;;;4.20;2.20;;;10.80;99.90;;;;;;5032018;28;20212;-68
2022/11/07 07:16:46;;;;;;;5.33;2.87;;;10.90;99.90;;;;;;5031868;28;20717;-69
2022/11/07 07:19:11;;;;;;;3.73;2.27;;;11.00;99.90;;;;;;5031632;28;20220;-69
2022/11/07 07:21:37;;;;;;;3.03;2.50;;;11.00;99.90;;;;;;5031386;28;20201;-69
2022/11/07 07:24:03;;;;;;;4.27;2.03;;;11.10;99.90;;;;;;5031433;28;20644;-69
2022/11/07 07:26:29;;;;;;;7.40;3.90;;;11.20;99.90;;;;;;5031745;28;20819;-69
2022/11/07 07:28:54;;;;;;;2.63;2.30;;;11.30;99.90;;;;;;5031554;28;20420;-68
2022/11/07 07:31:24;;;;;;;7.33;3.17;;;11.40;99.90;;;;;;5031697;28;20190;-69
2022/11/07 07:33:50;;;;;;;4.77;2.40;;;11.40;99.90;;;;;;5031786;28;20221;-68
2022/11/07 07:36:16;;;;;;;4.80;2.50;;;11.60;99.90;;;;;;5031751;28;20409;-69
2022/11/07 07:38:42;;;;;;;6.70;4.73;;;11.60;99.90;;;;;;5031361;28;20659;-69
2022/11/07 07:41:07;;;;;;;2.63;2.17;;;11.60;99.90;;;;;;5031572;28;20445;-69
2022/11/07 07:43:33;;;;;;;3.40;2.30;;;11.60;99.90;;;;;;5031623;28;20417;-69
2022/11/07 07:46:00;;;;;;;6.83;2.30;;;11.70;99.90;;;;;;5030404;28;20175;-69
2022/11/07 07:48:26;;;;;;;6.43;5.37;;;11.80;99.90;;;;;;5031363;28;20200;-70
2022/11/07 07:50:52;;;;;;;3.13;2.30;;;11.90;99.90;;;;;;5031578;28;20527;-70
2022/11/07 07:53:17;;;;;;;6.80;2.73;;;12.00;99.90;;;;;;5010249;28;20553;-67
2022/11/07 07:55:43;;;;;;;4.53;3.10;;;12.10;99.90;;;;;;5004817;28;20685;-69
2022/11/07 07:58:10;;;;;;;7.87;3.40;;;12.30;99.90;;;;;;5027898;28;20209;-69
2022/11/07 08:00:36;;;;;;;5.87;3.07;;;12.50;99.90;;;;;;5028891;28;20316;-68
2022/11/07 08:03:03;;;;;;;5.83;2.67;;;12.80;99.90;;;;;;5027120;28;20413;-69
2022/11/07 08:05:29;;;;;;;5.70;4.60;;;12.70;99.90;;;;;;5030775;28;20420;-69
2022/11/07 08:07:55;;;;;;;3.17;2.23;;;12.80;99.90;;;;;;5031017;28;20421;-70
2022/11/07 08:10:20;;;;;;;4.30;2.17;;;12.80;99.90;;;;;;5031029;28;20174;-69
2022/11/07 08:12:47;;;;;;;2.37;2.13;;;12.70;99.90;;;;;;5026870;28;20814;-70
2022/11/07 08:15:15;;;;;;;7.37;2.30;;;12.60;99.90;;;;;;5031279;28;20701;-69
2022/11/07 08:17:41;;;;;;;6.27;2.67;;;12.50;99.90;;;;;;5030465;28;20483;-69
2022/11/07 08:20:08;;;;;;;5.17;2.20;;;12.40;99.90;;;;;;5030960;28;20925;-69
2022/11/07 08:22:35;;;;;;;2.63;2.43;;;12.30;99.90;;;;;;5031267;28;20208;-69
2022/11/07 08:25:01;;;;;;;5.90;1.97;;;12.20;99.90;;;;;;5033909;28;20429;-70
2022/11/07 08:27:26;;;;;;;4.80;3.20;;;12.20;99.90;;;;;;5034677;28;20488;-69
2022/11/07 08:29:52;;;;;;;3.57;2.30;;;12.20;99.90;;;;;;5032797;28;20170;-68
2022/11/07 08:32:17;;;;;;;3.23;2.00;;;12.10;99.90;;;;;;5031340;28;20205;-68
2022/11/07 08:34:43;;;;;;;4.30;2.53;;;12.20;99.90;;;;;;5034285;28;20186;-69
2022/11/07 08:37:08;;;;;;;3.73;1.93;;;12.10;99.90;;;;;;5033720;28;20206;-68
2022/11/07 08:39:34;;;;;;;7.27;2.50;;;12.20;99.90;;;;;;5034161;28;20516;-69
2022/11/07 08:41:59;;;;;;;4.57;2.37;;;12.20;99.90;;;;;;5034060;28;20280;-69
2022/11/07 08:44:25;;;;;;;3.57;2.00;;;12.20;99.90;;;;;;5030725;28;20227;-68
2022/11/07 08:46:50;;;;;;;2.60;2.20;;;12.20;99.90;;;;;;5034360;28;20182;-69
2022/11/07 08:49:16;;;;;;;5.77;2.73;;;12.30;99.90;;;;;;5033665;28;20182;-69
2022/11/07 08:51:42;;;;;;;6.13;2.90;;;12.30;99.90;;;;;;5033914;28;20663;-68
2022/11/07 08:54:07;;;;;;;5.57;2.77;;;12.40;99.90;;;;;;5030493;28;20225;-69
2022/11/07 08:56:33;;;;;;;9.73;2.67;;;12.50;99.90;;;;;;5033881;28;20178;-69
2022/11/07 08:58:59;;;;;;;2.60;2.00;;;12.60;99.90;;;;;;5032691;28;20249;-69
2022/11/07 09:01:25;;;;;;;5.80;1.80;;;12.80;99.90;;;;;;5033372;28;20197;-69
2022/11/07 09:03:50;;;;;;;4.90;2.40;;;12.90;99.90;;;;;;5030414;28;20929;-69
2022/11/07 09:06:16;;;;;;;10.10;3.67;;;13.10;99.90;;;;;;5034029;28;20166;-69
2022/11/07 09:08:42;;;;;;;5.10;2.97;;;13.30;99.90;;;;;;5033120;28;20659;-69
2022/11/07 09:11:08;;;;;;;4.60;2.40;;;13.40;99.90;;;;;;5033091;28;20473;-69
2022/11/07 09:13:34;;;;;;;6.07;3.63;;;13.40;99.90;;;;;;5026834;28;20240;-70
2022/11/07 09:16:01;;;;;;;2.67;2.47;;;13.60;99.90;;;;;;5032552;28;20417;-68
2022/11/07 09:18:27;;;;;;;4.50;3.03;;;13.60;99.90;;;;;;5032604;28;20818;-72
2022/11/07 09:20:53;;;;;;;7.00;2.60;;;13.60;99.90;;;;;;5033647;28;20825;-69
2022/11/07 09:23:19;;;;;;;2.80;2.13;;;13.60;99.90;;;;;;5030299;28;20914;-69
2022/11/07 09:25:45;;;;;;;5.30;2.87;;;13.80;99.90;;;;;;5032611;28;20428;-68
2022/11/07 09:28:11;;;;;;;8.00;3.00;;;13.90;99.90;;;;;;5033458;28;20663;-67
2022/11/07 09:30:36;;;;;;;3.30;1.93;;;13.90;99.90;;;;;;5033508;28;20452;-69
2022/11/07 09:33:02;;;;;;;4.23;2.27;;;14.30;99.90;;;;;;5029302;28;20268;-68
2022/11/07 09:35:27;;;;;;;3.90;2.40;;;14.80;99.90;;;;;;5033626;28;20189;-68
2022/11/07 09:37:53;;;;;;;4.47;2.53;;;14.90;99.90;;;;;;5032892;28;20367;-71
2022/11/07 09:40:37;;;;;;;4.93;1.90;;;14.60;99.90;;;;;;5032858;28;20522;-69
2022/11/07 09:43:23;;;;;;;6.60;2.50;;;14.20;99.90;;;;;;5030035;28;20553;-70
2022/11/07 09:46:10;;;;;;;5.60;2.03;;;13.90;99.90;;;;;;5032501;28;20791;-69
2022/11/07 09:48:53;;;;;;;6.37;3.73;;;13.70;99.90;;;;;;5032948;28;20928;-69
2022/11/07 09:51:37;;;;;;;2.47;1.80;;;13.70;99.90;;;;;;5032613;28;20451;-70
2022/11/07 09:54:13;;;;;;;7.37;2.50;;;13.70;99.90;;;;;;5029526;28;20421;-68
2022/11/07 09:56:41;;;;;;;2.40;1.57;;;13.60;99.90;;;;;;5032195;28;20417;-69
2022/11/07 09:59:26;;;;;;;3.27;1.80;;;13.60;99.90;;;;;;5031837;28;20436;-69
2022/11/07 10:01:51;;;;;;;8.70;2.53;;;13.60;99.90;;;;;;5032968;28;20976;-69
2022/11/07 10:04:20;;;;;;;4.67;1.90;;;13.50;99.90;;;;;;5028420;28;20461;-70
2022/11/07 10:06:50;;;;;;;2.27;2.07;;;13.50;99.90;;;;;;5032794;28;20642;-70
2022/11/07 10:09:18;;;;;;;2.97;2.13;;;13.40;99.90;;;;;;5031765;28;20421;-69
2022/11/07 10:12:17;;;;;;;5.40;2.50;;;13.40;99.90;;;;;;5032739;28;20457;-69
2022/11/07 10:15:07;;;;;;;4.00;2.30;;;13.30;99.90;;;;;;5031292;28;20491;-69
2022/11/07 10:17:49;;;;;;;3.50;2.50;;;13.20;99.90;;;;;;5032375;28;20515;-69
2022/11/07 10:20:46;;;;;;;4.70;2.70;;;13.10;99.90;;;;;;5032432;28;20784;-70
2022/11/07 10:23:49;;;;;;;5.27;2.63;;;13.10;99.90;;;;;;5001913;28;20943;-69
2022/11/07 10:26:18;;;;;;;8.07;2.50;;;13.10;99.90;;;;;;5032147;28;20416;-70
2022/11/07 10:29:25;;;;;;;6.57;3.40;;;13.10;99.90;;;;;;5030730;28;20836;-70
2022/11/07 10:31:54;;;;;;;5.37;2.60;;;13.30;99.90;;;;;;5032533;28;20857;-69
2022/11/07 10:34:22;;;;;;;4.40;2.30;;;13.30;99.90;;;;;;5028100;28;20425;-69
2022/11/07 10:36:47;;;;;;;4.33;3.00;;;13.40;99.90;;;;;;5032348;28;20921;-69
2022/11/07 10:39:16;;;;;;;9.10;2.40;;;13.50;99.90;;;;;;5031730;28;20421;-68
2022/11/07 10:41:50;;;;;;;3.73;2.07;;;13.50;99.90;;;;;;5029061;28;20198;-69
2022/11/07 10:44:25;;;;;;;2.60;2.00;;;13.60;99.90;;;;;;5028471;28;20431;-70
2022/11/07 10:46:51;;;;;;;7.10;2.73;;;13.70;99.90;;;;;;5031312;28;20434;-69
2022/11/07 10:49:22;;;;;;;2.70;2.30;;;13.80;99.90;;;;;;5031637;28;20507;-69
2022/11/07 10:51:49;;;;;;;2.97;2.10;;;14.10;99.90;;;;;;5032203;28;20182;-69
2022/11/07 10:54:20;;;;;;;6.50;2.90;;;14.20;99.90;;;;;;5026609;28;20934;-68
2022/11/07 10:57:02;;;;;;;5.10;2.97;;;14.50;99.90;;;;;;5032152;28;20914;-69
2022/11/07 10:59:29;;;;;;;5.33;3.30;;;14.90;99.90;;;;;;5031463;28;20435;-69
2022/11/07 11:01:57;;;;;;;5.00;3.00;;;15.30;99.90;;;;;;5031550;28;20441;-69
2022/11/07 11:04:31;;;;;;;2.60;2.40;;;15.80;99.90;;;;;;5028433;28;20424;-68
2022/11/07 11:07:01;;;;;;;2.60;2.23;;;15.60;99.90;;;;;;5031273;28;20436;-69
2022/11/07 11:09:35;;;;;;;29.03;14.13;;;15.30;99.90;;;;;;5029181;28;20498;-70
2022/11/07 11:12:12;;;;;;;6.70;3.87;;;15.10;99.90;;;;;;5030853;28;20973;-68
2022/11/07 11:14:38;;;;;;;6.43;3.60;;;15.50;99.90;;;;;;5030526;28;20959;-68
2022/11/07 11:17:25;;;;;;;3.83;2.43;;;15.60;99.90;;;;;;5031369;28;20456;-68
2022/11/07 11:19:52;;;;;;;8.13;2.70;;;16.30;99.90;;;;;;5030846;28;20804;-68
2022/11/07 11:22:20;;;;;;;6.47;2.40;;;17.10;99.90;;;;;;5029112;28;20517;-69
2022/11/07 11:24:58;;;;;;;4.57;2.80;;;18.80;99.90;;;;;;5030493;28;20421;-71
2022/11/07 11:27:28;;;;;;;4.60;2.30;;;19.40;99.90;;;;;;5031507;28;20432;-70
2022/11/07 11:30:06;;;;;;;9.43;3.13;;;20.00;99.90;;;;;;5031265;28;20811;-71
2022/11/07 11:32:44;;;;;;;6.60;4.37;;;19.80;99.90;;;;;;5028090;28;20453;-70
2022/11/07 11:35:21;;;;;;;4.03;2.80;;;19.60;99.90;;;;;;5029818;28;20499;-69
2022/11/07 11:37:57;;;;;;;3.43;1.40;;;19.80;99.90;;;;;;5028290;28;21000;-70
2022/11/07 11:40:23;;;;;;;2.80;1.40;;;19.50;99.90;;;;;;5031191;28;20938;-69
2022/11/07 11:43:04;;;;;;;3.60;1.70;;;19.40;99.90;;;;;;5027619;28;20485;-70
2022/11/07 11:45:49;;;;;;;1.63;1.27;;;19.40;99.90;;;;;;5028602;28;20795;-70
2022/11/07 11:48:26;;;;;;;3.43;1.60;;;19.00;99.90;;;;;;5029283;28;20455;-71
2022/11/07 11:51:05;;;;;;;4.43;1.40;;;18.30;99.90;;;;;;5028476;28;20453;-71
2022/11/07 11:53:31;;;;;;;3.07;2.10;;;17.90;99.90;;;;;;5028502;28;21010;-69
2022/11/07 11:56:19;;;;;;;3.87;1.93;;;18.10;99.90;;;;;;5032505;28;20523;-69
2022/11/07 11:58:58;;;;;;;5.60;1.90;;;18.30;99.90;;;;;;5030396;28;20213;-70
2022/11/07 12:01:42;;;;;;;3.17;1.87;;;18.30;99.90;;;;;;5028526;28;20480;-69
2022/11/07 12:04:33;;;;;;;3.10;1.57;;;18.60;99.90;;;;;;5029111;28;20431;-69
2022/11/07 12:07:29;;;;;;;3.53;1.53;;;18.80;99.90;;;;;;5034536;28;20571;-69
2022/11/07 12:09:59;;;;;;;2.60;2.40;;;18.90;99.90;;;;;;5015036;28;20478;-68
2022/11/07 12:12:37;;;;;;;3.50;2.20;;;19.10;99.90;;;;;;5015342;28;20569;-69
2022/11/07 12:15:28;;;;;;;3.70;2.07;;;19.60;99.90;;;;;;5033900;28;20424;-69
2022/11/07 12:18:22;;;;;;;2.07;1.57;;;21.30;99.90;;;;;;5033530;28;20823;-70
2022/11/07 12:21:10;;;;;;;3.93;3.17;;;24.00;95.20;;;;;;5025692;28;20429;-70
2022/11/07 12:23:45;;;;;;;4.50;1.67;;;24.30;92.80;;;;;;5029457;28;20480;-70
2022/11/07 12:26:28;;;;;;;4.33;2.20;;;23.30;91.80;;;;;;5033481;28;20964;-70
2022/11/07 12:29:10;;;;;;;7.20;2.40;;;22.10;94.00;;;;;;5034477;28;20461;-69
2022/11/07 12:32:11;;;;;;;2.30;2.10;;;20.80;96.90;;;;;;5033892;28;20440;-69
2022/11/07 12:34:56;;;;;;;5.10;1.80;;;20.40;98.60;;;;;;5033002;28;20420;-69
2022/11/07 12:37:46;;;;;;;2.43;1.60;;;20.40;99.60;;;;;;5033750;28;20456;-69
2022/11/07 12:40:40;;;;;;;4.13;1.80;;;20.00;99.90;;;;;;5034322;28;20430;-69
2022/11/07 12:43:27;;;;;;;3.43;1.40;;;19.30;99.90;;;;;;5031179;28;20420;-69
2022/11/07 12:46:12;;;;;;;5.00;3.40;;;18.50;99.90;;;;;;5014624;28;20421;-69
2022/11/07 12:48:37;;;;;;;3.97;2.00;;;19.10;99.90;;;;;;5014491;28;20772;-69
2022/11/07 12:51:24;;;;;;;2.60;1.33;;;19.50;99.90;;;;;;5030629;28;20444;-69
2022/11/07 12:54:09;;;;;;;3.00;1.60;;;20.90;99.90;;;;;;5030966;28;20204;-69
2022/11/07 12:56:36;;;;;;;1.83;1.50;;;22.00;96.00;;;;;;5033842;28;20767;-71
2022/11/07 12:59:12;;;;;;;3.07;1.60;;;21.90;94.90;;;;;;5033500;28;20890;-70
2022/11/07 13:01:46;;;;;;;2.20;1.73;;;21.10;95.20;;;;;;5034155;28;20805;-69
2022/11/07 13:04:18;;;;;;;1.60;1.50;;;20.00;98.60;;;;;;5030196;28;20420;-70
2022/11/07 13:06:57;;;;;;;3.10;1.30;;;18.80;99.90;;;;;;5032688;28;20416;-69
2022/11/07 13:09:34;;;;;;;2.97;1.47;;;17.80;99.90;;;;;;5032927;28;20439;-70
2022/11/07 13:12:18;;;;;;;3.30;1.90;;;17.30;99.90;;;;;;5033727;28;20456;-69